Sao Martinho, Brazil
Current Conditions -  °F | °C
As of 12:00 PM on Thursday 23 Oct 2014 (Local Time) from SBFL Reporting Station
Few Clouds Few Clouds  
Wind Chill: 75°   Ceiling: Unl
Heat Index: 75°   Visibility: 6mi
Dew Point: 57°   Wind: 16mph
Humidity: 53%   Direction: 350°N
Pressure: 30.12"   Gusts: NA
Location:  28.16°S, 48.98°W
Report Text: SBFL 231400Z 35014KT 9999 FEW030 24/14 Q1020
Loading
Personal Weather Stations






























Interactive Weather Map
Tropical Storm Tracking
New forecast layout! Learn more

10-Day Weather Forecast

Advertisements
Track Severe Weather on mobile